Terminal Aerodrome Forecast
Issued by NWS Wakefield, VA

Current Version | Previous Version | Text Only | Print | Product List | Glossary On
Versions: 1 2 3 4 5 6 7 8 9 10 11 12 13 14
000
FTUS41 KAKQ 302300
TAFORF
TAF
KORF 302337Z 3100/3124 16006KT P6SM BKN250
     FM310900 23006KT P6SM BKN030
     FM311400 22012KT P6SM SCT050 SCT250=

USA.gov is the U.S. government's official web portal to all federal, state and local government web resources and services.